sensor_id;sensor_type;location;lat;lon;timestamp;P1;durP1;ratioP1;P2;durP2;ratioP2
25237;SDS011;13185;50.872;5.306;2023-10-09T00:01:49;6.63;;;3.85;;
25237;SDS011;13185;50.872;5.306;2023-10-09T00:04:16;7.28;;;4.05;;
25237;SDS011;13185;50.872;5.306;2023-10-09T00:06:42;7.30;;;4.70;;
25237;SDS011;13185;50.872;5.306;2023-10-09T00:09:09;7.25;;;4.53;;
25237;SDS011;13185;50.872;5.306;2023-10-09T00:11:51;5.32;;;3.97;;
25237;SDS011;13185;50.872;5.306;2023-10-09T00:14:24;8.07;;;4.57;;
25237;SDS011;13185;50.872;5.306;2023-10-09T00:16:50;10.20;;;3.90;;
25237;SDS011;13185;50.872;5.306;2023-10-09T00:19:21;7.60;;;4.70;;
25237;SDS011;13185;50.872;5.306;2023-10-09T00:21:58;9.70;;;4.43;;
25237;SDS011;13185;50.872;5.306;2023-10-09T00:24:31;6.90;;;4.40;;
25237;SDS011;13185;50.872;5.306;2023-10-09T00:26:57;9.35;;;4.85;;
25237;SDS011;13185;50.872;5.306;2023-10-09T00:29:48;6.78;;;4.00;;
25237;SDS011;13185;50.872;5.306;2023-10-09T00:32:14;5.45;;;3.45;;
25237;SDS011;13185;50.872;5.306;2023-10-09T00:34:42;5.75;;;3.65;;
25237;SDS011;13185;50.872;5.306;2023-10-09T00:37:08;8.30;;;4.18;;
25237;SDS011;13185;50.872;5.306;2023-10-09T00:39:48;6.82;;;4.68;;
25237;SDS011;13185;50.872;5.306;2023-10-09T00:42:22;8.43;;;3.90;;
25237;SDS011;13185;50.872;5.306;2023-10-09T00:44:58;5.85;;;3.60;;
25237;SDS011;13185;50.872;5.306;2023-10-09T00:47:33;7.20;;;4.22;;
25237;SDS011;13185;50.872;5.306;2023-10-09T00:50:06;8.00;;;3.72;;
25237;SDS011;13185;50.872;5.306;2023-10-09T00:52:47;6.88;;;4.28;;
25237;SDS011;13185;50.872;5.306;2023-10-09T00:55:26;9.02;;;4.35;;
25237;SDS011;13185;50.872;5.306;2023-10-09T00:58:03;7.03;;;4.20;;
25237;SDS011;13185;50.872;5.306;2023-10-09T01:00:35;8.23;;;4.20;;
25237;SDS011;13185;50.872;5.306;2023-10-09T01:03:14;8.75;;;4.57;;
25237;SDS011;13185;50.872;5.306;2023-10-09T01:05:41;10.77;;;4.85;;
25237;SDS011;13185;50.872;5.306;2023-10-09T01:08:18;7.75;;;4.25;;
25237;SDS011;13185;50.872;5.306;2023-10-09T01:10:55;9.98;;;4.97;;
25237;SDS011;13185;50.872;5.306;2023-10-09T01:13:45;7.43;;;4.22;;
25237;SDS011;13185;50.872;5.306;2023-10-09T01:16:23;6.90;;;4.13;;
25237;SDS011;13185;50.872;5.306;2023-10-09T01:18:52;7.78;;;4.82;;
25237;SDS011;13185;50.872;5.306;2023-10-09T01:21:22;8.20;;;4.65;;
25237;SDS011;13185;50.872;5.306;2023-10-09T01:23:56;8.50;;;5.00;;
25237;SDS011;13185;50.872;5.306;2023-10-09T01:26:36;5.57;;;4.00;;
25237;SDS011;13185;50.872;5.306;2023-10-09T01:31:45;7.47;;;3.92;;
25237;SDS011;13185;50.872;5.306;2023-10-09T01:34:38;7.43;;;4.75;;
25237;SDS011;13185;50.872;5.306;2023-10-09T01:37:03;8.23;;;4.68;;
25237;SDS011;13185;50.872;5.306;2023-10-09T01:39:48;10.88;;;4.65;;
25237;SDS011;13185;50.872;5.306;2023-10-09T01:42:16;8.38;;;4.40;;
25237;SDS011;13185;50.872;5.306;2023-10-09T01:44:55;7.30;;;4.70;;
25237;SDS011;13185;50.872;5.306;2023-10-09T01:47:23;7.65;;;4.72;;
25237;SDS011;13185;50.872;5.306;2023-10-09T01:49:53;7.43;;;4.90;;
25237;SDS011;13185;50.872;5.306;2023-10-09T01:52:19;9.07;;;4.80;;
25237;SDS011;13185;50.872;5.306;2023-10-09T01:54:46;8.68;;;5.30;;
25237;SDS011;13185;50.872;5.306;2023-10-09T01:57:16;6.88;;;4.57;;
25237;SDS011;13185;50.872;5.306;2023-10-09T01:59:49;6.55;;;4.57;;
25237;SDS011;13185;50.872;5.306;2023-10-09T02:02:18;9.57;;;4.40;;
25237;SDS011;13185;50.872;5.306;2023-10-09T02:07:46;6.30;;;4.53;;
25237;SDS011;13185;50.872;5.306;2023-10-09T02:10:26;7.40;;;4.60;;
25237;SDS011;13185;50.872;5.306;2023-10-09T02:15:36;9.77;;;5.18;;
25237;SDS011;13185;50.872;5.306;2023-10-09T02:18:17;9.02;;;5.20;;
25237;SDS011;13185;50.872;5.306;2023-10-09T02:23:26;6.32;;;4.65;;
25237;SDS011;13185;50.872;5.306;2023-10-09T02:26:05;9.45;;;4.90;;
25237;SDS011;13185;50.872;5.306;2023-10-09T02:28:34;6.78;;;4.72;;
25237;SDS011;13185;50.872;5.306;2023-10-09T02:31:01;7.20;;;4.63;;
25237;SDS011;13185;50.872;5.306;2023-10-09T02:33:40;9.65;;;4.72;;
25237;SDS011;13185;50.872;5.306;2023-10-09T02:36:06;7.22;;;4.30;;
25237;SDS011;13185;50.872;5.306;2023-10-09T02:38:32;7.60;;;4.45;;
25237;SDS011;13185;50.872;5.306;2023-10-09T02:41:03;9.57;;;4.88;;
25237;SDS011;13185;50.872;5.306;2023-10-09T02:43:29;12.15;;;5.20;;
25237;SDS011;13185;50.872;5.306;2023-10-09T02:46:19;9.45;;;5.30;;
25237;SDS011;13185;50.872;5.306;2023-10-09T02:48:48;6.72;;;4.75;;
25237;SDS011;13185;50.872;5.306;2023-10-09T02:51:20;9.07;;;5.75;;
25237;SDS011;13185;50.872;5.306;2023-10-09T02:53:58;9.70;;;4.85;;
25237;SDS011;13185;50.872;5.306;2023-10-09T02:56:32;8.02;;;4.60;;
25237;SDS011;13185;50.872;5.306;2023-10-09T02:59:12;6.72;;;4.97;;
25237;SDS011;13185;50.872;5.306;2023-10-09T03:01:39;7.18;;;4.97;;
25237;SDS011;13185;50.872;5.306;2023-10-09T03:04:05;8.85;;;4.53;;
25237;SDS011;13185;50.872;5.306;2023-10-09T03:06:33;6.38;;;4.43;;
25237;SDS011;13185;50.872;5.306;2023-10-09T03:09:03;9.25;;;5.00;;
25237;SDS011;13185;50.872;5.306;2023-10-09T03:11:48;7.10;;;4.47;;
25237;SDS011;13185;50.872;5.306;2023-10-09T03:14:36;8.02;;;4.93;;
25237;SDS011;13185;50.872;5.306;2023-10-09T03:17:06;8.95;;;4.88;;
25237;SDS011;13185;50.872;5.306;2023-10-09T03:19:36;7.97;;;5.28;;
25237;SDS011;13185;50.872;5.306;2023-10-09T03:22:06;9.00;;;5.05;;
25237;SDS011;13185;50.872;5.306;2023-10-09T03:24:37;8.88;;;5.55;;
25237;SDS011;13185;50.872;5.306;2023-10-09T03:29:36;7.07;;;4.60;;
25237;SDS011;13185;50.872;5.306;2023-10-09T03:32:02;8.18;;;5.05;;
25237;SDS011;13185;50.872;5.306;2023-10-09T03:34:28;10.93;;;5.30;;
25237;SDS011;13185;50.872;5.306;2023-10-09T03:36:56;8.50;;;4.88;;
25237;SDS011;13185;50.872;5.306;2023-10-09T03:39:31;9.88;;;5.07;;
25237;SDS011;13185;50.872;5.306;2023-10-09T03:42:06;11.75;;;5.03;;
25237;SDS011;13185;50.872;5.306;2023-10-09T03:44:40;8.00;;;5.35;;
25237;SDS011;13185;50.872;5.306;2023-10-09T03:47:09;8.00;;;5.38;;
25237;SDS011;13185;50.872;5.306;2023-10-09T03:49:36;10.60;;;5.65;;
25237;SDS011;13185;50.872;5.306;2023-10-09T03:52:04;9.00;;;5.43;;
25237;SDS011;13185;50.872;5.306;2023-10-09T03:54:32;9.52;;;4.88;;
25237;SDS011;13185;50.872;5.306;2023-10-09T03:57:00;9.70;;;5.88;;
25237;SDS011;13185;50.872;5.306;2023-10-09T03:59:26;8.23;;;5.30;;
25237;SDS011;13185;50.872;5.306;2023-10-09T04:01:55;8.35;;;5.00;;
25237;SDS011;13185;50.872;5.306;2023-10-09T04:04:23;8.73;;;5.68;;
25237;SDS011;13185;50.872;5.306;2023-10-09T04:06:49;12.50;;;5.80;;
25237;SDS011;13185;50.872;5.306;2023-10-09T04:09:16;10.13;;;5.65;;
25237;SDS011;13185;50.872;5.306;2023-10-09T04:11:52;10.60;;;5.80;;
25237;SDS011;13185;50.872;5.306;2023-10-09T04:14:37;8.32;;;5.30;;
25237;SDS011;13185;50.872;5.306;2023-10-09T04:17:12;8.65;;;6.20;;
25237;SDS011;13185;50.872;5.306;2023-10-09T04:19:44;10.32;;;5.22;;
25237;SDS011;13185;50.872;5.306;2023-10-09T04:22:28;8.65;;;4.97;;
25237;SDS011;13185;50.872;5.306;2023-10-09T04:24:56;11.32;;;5.95;;
25237;SDS011;13185;50.872;5.306;2023-10-09T04:27:22;10.75;;;5.70;;
25237;SDS011;13185;50.872;5.306;2023-10-09T04:29:54;11.98;;;5.63;;
25237;SDS011;13185;50.872;5.306;2023-10-09T04:32:20;9.98;;;6.43;;
25237;SDS011;13185;50.872;5.306;2023-10-09T04:34:50;11.48;;;6.00;;
25237;SDS011;13185;50.872;5.306;2023-10-09T04:37:36;10.48;;;5.63;;
25237;SDS011;13185;50.872;5.306;2023-10-09T04:40:05;9.10;;;5.63;;
25237;SDS011;13185;50.872;5.306;2023-10-09T04:42:52;11.43;;;6.65;;
25237;SDS011;13185;50.872;5.306;2023-10-09T04:45:24;8.60;;;5.68;;
25237;SDS011;13185;50.872;5.306;2023-10-09T04:48:08;15.98;;;5.90;;
25237;SDS011;13185;50.872;5.306;2023-10-09T04:50:34;9.70;;;5.75;;
25237;SDS011;13185;50.872;5.306;2023-10-09T04:53:03;12.23;;;5.72;;
25237;SDS011;13185;50.872;5.306;2023-10-09T04:55:41;11.93;;;5.68;;
25237;SDS011;13185;50.872;5.306;2023-10-09T04:58:09;8.05;;;4.90;;
25237;SDS011;13185;50.872;5.306;2023-10-09T05:00:48;8.65;;;5.50;;
25237;SDS011;13185;50.872;5.306;2023-10-09T05:03:27;8.65;;;5.47;;
25237;SDS011;13185;50.872;5.306;2023-10-09T05:05:54;7.72;;;5.82;;
25237;SDS011;13185;50.872;5.306;2023-10-09T05:08:24;8.75;;;5.75;;
25237;SDS011;13185;50.872;5.306;2023-10-09T05:16:06;7.63;;;5.70;;
25237;SDS011;13185;50.872;5.306;2023-10-09T05:18:50;10.57;;;5.10;;
25237;SDS011;13185;50.872;5.306;2023-10-09T05:21:35;14.00;;;6.50;;
25237;SDS011;13185;50.872;5.306;2023-10-09T05:24:09;8.73;;;5.78;;
25237;SDS011;13185;50.872;5.306;2023-10-09T05:26:39;12.98;;;5.65;;
25237;SDS011;13185;50.872;5.306;2023-10-09T05:29:15;7.95;;;5.35;;
25237;SDS011;13185;50.872;5.306;2023-10-09T05:32:13;11.80;;;5.82;;
25237;SDS011;13185;50.872;5.306;2023-10-09T05:34:39;10.15;;;6.68;;
25237;SDS011;13185;50.872;5.306;2023-10-09T05:37:31;13.52;;;7.72;;
25237;SDS011;13185;50.872;5.306;2023-10-09T05:39:59;9.40;;;6.03;;
25237;SDS011;13185;50.872;5.306;2023-10-09T05:42:32;10.93;;;6.25;;
25237;SDS011;13185;50.872;5.306;2023-10-09T05:45:05;11.02;;;5.78;;
25237;SDS011;13185;50.872;5.306;2023-10-09T05:50:19;9.57;;;5.95;;
25237;SDS011;13185;50.872;5.306;2023-10-09T05:52:44;10.02;;;6.20;;
25237;SDS011;13185;50.872;5.306;2023-10-09T05:55:16;11.25;;;5.88;;
25237;SDS011;13185;50.872;5.306;2023-10-09T05:57:44;11.23;;;5.72;;
25237;SDS011;13185;50.872;5.306;2023-10-09T06:00:29;11.23;;;5.32;;
25237;SDS011;13185;50.872;5.306;2023-10-09T06:03:13;13.10;;;5.75;;
25237;SDS011;13185;50.872;5.306;2023-10-09T06:05:47;10.18;;;5.90;;
25237;SDS011;13185;50.872;5.306;2023-10-09T06:08:30;12.13;;;6.40;;
25237;SDS011;13185;50.872;5.306;2023-10-09T06:11:05;10.35;;;6.05;;
25237;SDS011;13185;50.872;5.306;2023-10-09T06:14:10;9.15;;;5.80;;
25237;SDS011;13185;50.872;5.306;2023-10-09T06:16:36;11.48;;;6.60;;
25237;SDS011;13185;50.872;5.306;2023-10-09T06:19:09;8.85;;;5.80;;
25237;SDS011;13185;50.872;5.306;2023-10-09T06:21:44;9.60;;;6.38;;
25237;SDS011;13185;50.872;5.306;2023-10-09T06:24:17;9.13;;;5.95;;
25237;SDS011;13185;50.872;5.306;2023-10-09T06:26:48;12.18;;;6.38;;
25237;SDS011;13185;50.872;5.306;2023-10-09T06:29:23;12.48;;;5.82;;
25237;SDS011;13185;50.872;5.306;2023-10-09T06:32:16;11.90;;;6.32;;
25237;SDS011;13185;50.872;5.306;2023-10-09T06:34:45;14.40;;;7.30;;
25237;SDS011;13185;50.872;5.306;2023-10-09T06:37:12;10.15;;;6.03;;
25237;SDS011;13185;50.872;5.306;2023-10-09T06:39:50;11.82;;;6.63;;
25237;SDS011;13185;50.872;5.306;2023-10-09T06:42:36;13.77;;;6.28;;
25237;SDS011;13185;50.872;5.306;2023-10-09T06:45:08;10.60;;;6.45;;
25237;SDS011;13185;50.872;5.306;2023-10-09T06:47:44;12.50;;;6.28;;
25237;SDS011;13185;50.872;5.306;2023-10-09T06:50:21;10.43;;;6.47;;
25237;SDS011;13185;50.872;5.306;2023-10-09T06:52:50;14.18;;;7.20;;
25237;SDS011;13185;50.872;5.306;2023-10-09T06:55:23;13.93;;;6.90;;
25237;SDS011;13185;50.872;5.306;2023-10-09T06:57:59;10.07;;;6.53;;
25237;SDS011;13185;50.872;5.306;2023-10-09T07:00:29;10.88;;;6.30;;
25237;SDS011;13185;50.872;5.306;2023-10-09T07:03:17;16.85;;;7.65;;
25237;SDS011;13185;50.872;5.306;2023-10-09T07:05:45;11.60;;;7.07;;
25237;SDS011;13185;50.872;5.306;2023-10-09T07:08:34;12.18;;;7.60;;
25237;SDS011;13185;50.872;5.306;2023-10-09T07:11:04;16.40;;;5.88;;
25237;SDS011;13185;50.872;5.306;2023-10-09T07:13:48;14.90;;;6.47;;
25237;SDS011;13185;50.872;5.306;2023-10-09T07:16:23;11.55;;;7.80;;
25237;SDS011;13185;50.872;5.306;2023-10-09T07:18:53;9.20;;;6.50;;
25237;SDS011;13185;50.872;5.306;2023-10-09T07:21:34;13.20;;;7.00;;
25237;SDS011;13185;50.872;5.306;2023-10-09T07:24:01;13.80;;;7.82;;
25237;SDS011;13185;50.872;5.306;2023-10-09T07:26:42;12.55;;;6.20;;
25237;SDS011;13185;50.872;5.306;2023-10-09T07:29:18;10.80;;;6.68;;
25237;SDS011;13185;50.872;5.306;2023-10-09T07:31:47;12.55;;;7.10;;
25237;SDS011;13185;50.872;5.306;2023-10-09T07:34:23;9.50;;;6.10;;
25237;SDS011;13185;50.872;5.306;2023-10-09T07:37:09;15.93;;;8.07;;
25237;SDS011;13185;50.872;5.306;2023-10-09T07:39:35;14.52;;;7.03;;
25237;SDS011;13185;50.872;5.306;2023-10-09T07:42:01;13.90;;;8.15;;
25237;SDS011;13185;50.872;5.306;2023-10-09T07:44:52;25.83;;;9.70;;
25237;SDS011;13185;50.872;5.306;2023-10-09T07:47:18;11.80;;;7.35;;
25237;SDS011;13185;50.872;5.306;2023-10-09T07:50:10;18.15;;;8.40;;
25237;SDS011;13185;50.872;5.306;2023-10-09T07:52:36;21.60;;;9.00;;
25237;SDS011;13185;50.872;5.306;2023-10-09T07:55:09;16.13;;;8.25;;
25237;SDS011;13185;50.872;5.306;2023-10-09T07:57:51;18.93;;;7.93;;
25237;SDS011;13185;50.872;5.306;2023-10-09T08:00:17;12.55;;;7.85;;
25237;SDS011;13185;50.872;5.306;2023-10-09T08:03:01;16.80;;;7.70;;
25237;SDS011;13185;50.872;5.306;2023-10-09T08:05:27;13.57;;;7.55;;
25237;SDS011;13185;50.872;5.306;2023-10-09T08:07:59;15.48;;;7.70;;
25237;SDS011;13185;50.872;5.306;2023-10-09T08:10:48;12.57;;;7.70;;
25237;SDS011;13185;50.872;5.306;2023-10-09T08:13:32;13.43;;;8.00;;
25237;SDS011;13185;50.872;5.306;2023-10-09T08:16:23;18.20;;;8.25;;
25237;SDS011;13185;50.872;5.306;2023-10-09T08:18:49;12.13;;;7.93;;
25237;SDS011;13185;50.872;5.306;2023-10-09T08:21:19;12.13;;;7.85;;
25237;SDS011;13185;50.872;5.306;2023-10-09T08:23:47;11.95;;;7.68;;
25237;SDS011;13185;50.872;5.306;2023-10-09T08:26:16;16.60;;;8.68;;
25237;SDS011;13185;50.872;5.306;2023-10-09T08:28:57;12.35;;;6.90;;
25237;SDS011;13185;50.872;5.306;2023-10-09T08:31:43;13.55;;;7.65;;
25237;SDS011;13185;50.872;5.306;2023-10-09T08:34:14;13.40;;;7.47;;
25237;SDS011;13185;50.872;5.306;2023-10-09T08:36:52;13.35;;;7.57;;
25237;SDS011;13185;50.872;5.306;2023-10-09T08:39:19;14.55;;;8.45;;
25237;SDS011;13185;50.872;5.306;2023-10-09T08:41:54;15.35;;;7.68;;
25237;SDS011;13185;50.872;5.306;2023-10-09T08:44:23;15.93;;;7.57;;
25237;SDS011;13185;50.872;5.306;2023-10-09T08:46:53;13.73;;;7.63;;
25237;SDS011;13185;50.872;5.306;2023-10-09T08:49:19;13.93;;;7.68;;
25237;SDS011;13185;50.872;5.306;2023-10-09T08:51:46;12.52;;;7.15;;
25237;SDS011;13185;50.872;5.306;2023-10-09T08:54:13;11.88;;;7.25;;
25237;SDS011;13185;50.872;5.306;2023-10-09T08:56:40;13.52;;;7.40;;
25237;SDS011;13185;50.872;5.306;2023-10-09T08:59:15;16.67;;;7.65;;
25237;SDS011;13185;50.872;5.306;2023-10-09T09:01:47;14.50;;;7.90;;
25237;SDS011;13185;50.872;5.306;2023-10-09T09:04:36;10.07;;;6.78;;
25237;SDS011;13185;50.872;5.306;2023-10-09T09:07:03;13.18;;;6.97;;
25237;SDS011;13185;50.872;5.306;2023-10-09T09:09:30;13.88;;;6.95;;
25237;SDS011;13185;50.872;5.306;2023-10-09T09:11:57;14.77;;;7.70;;
25237;SDS011;13185;50.872;5.306;2023-10-09T09:14:45;11.80;;;7.13;;
25237;SDS011;13185;50.872;5.306;2023-10-09T09:17:10;24.13;;;8.30;;
25237;SDS011;13185;50.872;5.306;2023-10-09T09:19:55;9.63;;;6.60;;
25237;SDS011;13185;50.872;5.306;2023-10-09T09:22:22;12.07;;;6.97;;
25237;SDS011;13185;50.872;5.306;2023-10-09T09:24:57;11.70;;;7.03;;
25237;SDS011;13185;50.872;5.306;2023-10-09T09:27:43;11.80;;;7.10;;
25237;SDS011;13185;50.872;5.306;2023-10-09T09:30:27;12.85;;;6.93;;
25237;SDS011;13185;50.872;5.306;2023-10-09T09:36:08;82.15;;;11.27;;
25237;SDS011;13185;50.872;5.306;2023-10-09T09:38:36;102.18;;;13.32;;
25237;SDS011;13185;50.872;5.306;2023-10-09T09:41:15;72.88;;;13.35;;
25237;SDS011;13185;50.872;5.306;2023-10-09T09:43:58;15.65;;;7.38;;
25237;SDS011;13185;50.872;5.306;2023-10-09T09:46:31;11.35;;;5.93;;
25237;SDS011;13185;50.872;5.306;2023-10-09T09:49:00;12.68;;;6.47;;
25237;SDS011;13185;50.872;5.306;2023-10-09T09:51:30;12.00;;;6.22;;
25237;SDS011;13185;50.872;5.306;2023-10-09T09:53:56;12.05;;;6.25;;
25237;SDS011;13185;50.872;5.306;2023-10-09T09:56:24;9.20;;;5.68;;
25237;SDS011;13185;50.872;5.306;2023-10-09T09:58:51;9.95;;;5.97;;
25237;SDS011;13185;50.872;5.306;2023-10-09T10:01:23;8.75;;;5.43;;
25237;SDS011;13185;50.872;5.306;2023-10-09T10:06:46;7.47;;;5.38;;
25237;SDS011;13185;50.872;5.306;2023-10-09T10:12:07;11.15;;;6.10;;
25237;SDS011;13185;50.872;5.306;2023-10-09T10:14:55;9.98;;;5.38;;
25237;SDS011;13185;50.872;5.306;2023-10-09T10:20:24;10.98;;;5.78;;
25237;SDS011;13185;50.872;5.306;2023-10-09T10:22:51;14.50;;;5.72;;
25237;SDS011;13185;50.872;5.306;2023-10-09T10:25:42;12.23;;;5.05;;
25237;SDS011;13185;50.872;5.306;2023-10-09T10:31:10;8.55;;;4.55;;
25237;SDS011;13185;50.872;5.306;2023-10-09T10:36:24;8.55;;;4.47;;
25237;SDS011;13185;50.872;5.306;2023-10-09T10:39:02;9.85;;;5.18;;
25237;SDS011;13185;50.872;5.306;2023-10-09T10:41:35;12.63;;;4.75;;
25237;SDS011;13185;50.872;5.306;2023-10-09T10:44:13;13.70;;;5.07;;
25237;SDS011;13185;50.872;5.306;2023-10-09T10:46:57;9.90;;;5.18;;
25237;SDS011;13185;50.872;5.306;2023-10-09T10:49:23;9.90;;;4.88;;
25237;SDS011;13185;50.872;5.306;2023-10-09T10:51:51;8.25;;;5.05;;
25237;SDS011;13185;50.872;5.306;2023-10-09T10:54:26;10.15;;;5.60;;
25237;SDS011;13185;50.872;5.306;2023-10-09T10:56:57;10.93;;;5.03;;
25237;SDS011;13185;50.872;5.306;2023-10-09T10:59:25;8.18;;;4.32;;
25237;SDS011;13185;50.872;5.306;2023-10-09T11:01:51;9.18;;;4.65;;
25237;SDS011;13185;50.872;5.306;2023-10-09T11:04:39;7.25;;;4.25;;
25237;SDS011;13185;50.872;5.306;2023-10-09T11:07:08;9.30;;;4.72;;
25237;SDS011;13185;50.872;5.306;2023-10-09T11:09:54;10.23;;;5.15;;
25237;SDS011;13185;50.872;5.306;2023-10-09T11:12:24;9.32;;;4.72;;
25237;SDS011;13185;50.872;5.306;2023-10-09T11:15:13;8.65;;;4.65;;
25237;SDS011;13185;50.872;5.306;2023-10-09T11:17:59;9.05;;;4.80;;
25237;SDS011;13185;50.872;5.306;2023-10-09T11:20:45;8.27;;;4.80;;
25237;SDS011;13185;50.872;5.306;2023-10-09T11:23:23;8.70;;;4.55;;
25237;SDS011;13185;50.872;5.306;2023-10-09T11:25:59;8.93;;;4.82;;
25237;SDS011;13185;50.872;5.306;2023-10-09T11:31:35;11.15;;;6.43;;
25237;SDS011;13185;50.872;5.306;2023-10-09T11:34:00;14.95;;;4.10;;
25237;SDS011;13185;50.872;5.306;2023-10-09T11:36:27;8.98;;;4.30;;
25237;SDS011;13185;50.872;5.306;2023-10-09T11:38:59;12.60;;;4.27;;
25237;SDS011;13185;50.872;5.306;2023-10-09T11:41:47;8.20;;;4.85;;
25237;SDS011;13185;50.872;5.306;2023-10-09T11:44:15;9.60;;;4.82;;
25237;SDS011;13185;50.872;5.306;2023-10-09T11:46:59;7.90;;;4.45;;
25237;SDS011;13185;50.872;5.306;2023-10-09T11:49:56;11.45;;;5.07;;
25237;SDS011;13185;50.872;5.306;2023-10-09T11:52:26;12.32;;;4.75;;
25237;SDS011;13185;50.872;5.306;2023-10-09T11:55:11;9.93;;;4.75;;
25237;SDS011;13185;50.872;5.306;2023-10-09T11:57:41;10.27;;;4.50;;
25237;SDS011;13185;50.872;5.306;2023-10-09T12:00:07;7.78;;;4.30;;
25237;SDS011;13185;50.872;5.306;2023-10-09T12:02:50;6.85;;;3.90;;
25237;SDS011;13185;50.872;5.306;2023-10-09T12:05:15;11.60;;;4.57;;
25237;SDS011;13185;50.872;5.306;2023-10-09T12:07:44;8.82;;;4.63;;
25237;SDS011;13185;50.872;5.306;2023-10-09T12:10:10;10.30;;;4.72;;
25237;SDS011;13185;50.872;5.306;2023-10-09T12:12:39;8.55;;;4.22;;
25237;SDS011;13185;50.872;5.306;2023-10-09T12:15:05;8.70;;;5.65;;
25237;SDS011;13185;50.872;5.306;2023-10-09T12:17:31;10.25;;;5.18;;
25237;SDS011;13185;50.872;5.306;2023-10-09T12:19:57;7.22;;;3.97;;
25237;SDS011;13185;50.872;5.306;2023-10-09T12:22:23;7.55;;;4.13;;
25237;SDS011;13185;50.872;5.306;2023-10-09T12:24:52;13.55;;;5.25;;
25237;SDS011;13185;50.872;5.306;2023-10-09T12:27:18;10.68;;;4.65;;
25237;SDS011;13185;50.872;5.306;2023-10-09T12:29:45;10.70;;;5.18;;
25237;SDS011;13185;50.872;5.306;2023-10-09T12:32:11;10.10;;;4.50;;
25237;SDS011;13185;50.872;5.306;2023-10-09T12:34:37;9.88;;;4.28;;
25237;SDS011;13185;50.872;5.306;2023-10-09T12:37:03;6.70;;;3.72;;
25237;SDS011;13185;50.872;5.306;2023-10-09T12:39:29;9.85;;;4.97;;
25237;SDS011;13185;50.872;5.306;2023-10-09T12:42:05;9.02;;;4.22;;
25237;SDS011;13185;50.872;5.306;2023-10-09T12:44:37;13.93;;;4.72;;
25237;SDS011;13185;50.872;5.306;2023-10-09T12:47:08;7.95;;;4.50;;
25237;SDS011;13185;50.872;5.306;2023-10-09T12:49:36;9.27;;;4.43;;
25237;SDS011;13185;50.872;5.306;2023-10-09T12:52:06;7.00;;;4.60;;
25237;SDS011;13185;50.872;5.306;2023-10-09T12:54:42;7.28;;;4.32;;
25237;SDS011;13185;50.872;5.306;2023-10-09T12:57:09;14.43;;;5.05;;
25237;SDS011;13185;50.872;5.306;2023-10-09T12:59:39;8.18;;;4.10;;
25237;SDS011;13185;50.872;5.306;2023-10-09T13:02:11;9.63;;;3.78;;
25237;SDS011;13185;50.872;5.306;2023-10-09T13:04:39;6.43;;;3.97;;
25237;SDS011;13185;50.872;5.306;2023-10-09T13:07:07;7.97;;;4.25;;
25237;SDS011;13185;50.872;5.306;2023-10-09T13:09:33;7.60;;;4.10;;
25237;SDS011;13185;50.872;5.306;2023-10-09T13:12:08;10.10;;;4.47;;
25237;SDS011;13185;50.872;5.306;2023-10-09T13:14:34;5.57;;;3.88;;
25237;SDS011;13185;50.872;5.306;2023-10-09T13:17:00;8.02;;;4.63;;
25237;SDS011;13185;50.872;5.306;2023-10-09T13:19:34;10.75;;;4.18;;
25237;SDS011;13185;50.872;5.306;2023-10-09T13:21:59;7.20;;;4.38;;
25237;SDS011;13185;50.872;5.306;2023-10-09T13:24:28;9.23;;;4.43;;
25237;SDS011;13185;50.872;5.306;2023-10-09T13:26:55;9.82;;;4.25;;
25237;SDS011;13185;50.872;5.306;2023-10-09T13:29:23;8.40;;;4.25;;
25237;SDS011;13185;50.872;5.306;2023-10-09T13:31:49;14.82;;;4.88;;
25237;SDS011;13185;50.872;5.306;2023-10-09T13:34:17;7.53;;;3.92;;
25237;SDS011;13185;50.872;5.306;2023-10-09T13:36:43;7.55;;;4.28;;
25237;SDS011;13185;50.872;5.306;2023-10-09T13:39:18;8.07;;;4.22;;
25237;SDS011;13185;50.872;5.306;2023-10-09T13:44:26;9.00;;;4.35;;
25237;SDS011;13185;50.872;5.306;2023-10-09T13:46:55;6.28;;;4.00;;
25237;SDS011;13185;50.872;5.306;2023-10-09T13:49:30;8.10;;;3.97;;
25237;SDS011;13185;50.872;5.306;2023-10-09T13:51:57;6.88;;;4.30;;
25237;SDS011;13185;50.872;5.306;2023-10-09T13:54:23;8.75;;;4.32;;
25237;SDS011;13185;50.872;5.306;2023-10-09T13:57:01;8.85;;;4.80;;
25237;SDS011;13185;50.872;5.306;2023-10-09T14:02:00;9.38;;;3.95;;
25237;SDS011;13185;50.872;5.306;2023-10-09T14:04:27;6.55;;;4.55;;
25237;SDS011;13185;50.872;5.306;2023-10-09T14:06:53;9.07;;;4.25;;
25237;SDS011;13185;50.872;5.306;2023-10-09T14:09:22;12.57;;;4.72;;
25237;SDS011;13185;50.872;5.306;2023-10-09T14:12:04;8.20;;;4.70;;
25237;SDS011;13185;50.872;5.306;2023-10-09T14:14:44;8.13;;;4.75;;
25237;SDS011;13185;50.872;5.306;2023-10-09T14:17:13;7.85;;;4.10;;
25237;SDS011;13185;50.872;5.306;2023-10-09T14:19:48;9.30;;;4.45;;
25237;SDS011;13185;50.872;5.306;2023-10-09T14:22:25;8.93;;;4.97;;
25237;SDS011;13185;50.872;5.306;2023-10-09T14:24:51;10.15;;;4.60;;
25237;SDS011;13185;50.872;5.306;2023-10-09T14:27:21;12.70;;;5.82;;
25237;SDS011;13185;50.872;5.306;2023-10-09T14:29:51;10.65;;;5.43;;
25237;SDS011;13185;50.872;5.306;2023-10-09T14:32:21;9.32;;;5.00;;
25237;SDS011;13185;50.872;5.306;2023-10-09T14:34:53;15.23;;;5.82;;
25237;SDS011;13185;50.872;5.306;2023-10-09T14:37:20;7.63;;;5.13;;
25237;SDS011;13185;50.872;5.306;2023-10-09T14:39:49;10.52;;;5.18;;
25237;SDS011;13185;50.872;5.306;2023-10-09T14:42:15;7.10;;;4.63;;
25237;SDS011;13185;50.872;5.306;2023-10-09T14:44:40;7.90;;;5.07;;
25237;SDS011;13185;50.872;5.306;2023-10-09T14:47:07;8.30;;;4.85;;
25237;SDS011;13185;50.872;5.306;2023-10-09T14:49:33;12.32;;;5.22;;
25237;SDS011;13185;50.872;5.306;2023-10-09T14:52:11;11.32;;;5.35;;
25237;SDS011;13185;50.872;5.306;2023-10-09T14:54:41;12.88;;;4.40;;
25237;SDS011;13185;50.872;5.306;2023-10-09T14:57:07;8.50;;;4.88;;
25237;SDS011;13185;50.872;5.306;2023-10-09T14:59:33;7.90;;;4.68;;
25237;SDS011;13185;50.872;5.306;2023-10-09T15:01:59;7.57;;;4.22;;
25237;SDS011;13185;50.872;5.306;2023-10-09T15:04:25;10.40;;;4.93;;
25237;SDS011;13185;50.872;5.306;2023-10-09T15:06:51;8.88;;;3.97;;
25237;SDS011;13185;50.872;5.306;2023-10-09T15:09:17;8.68;;;4.40;;
25237;SDS011;13185;50.872;5.306;2023-10-09T15:11:53;11.23;;;4.15;;
25237;SDS011;13185;50.872;5.306;2023-10-09T15:14:19;9.25;;;4.68;;
25237;SDS011;13185;50.872;5.306;2023-10-09T15:16:45;6.15;;;4.10;;
25237;SDS011;13185;50.872;5.306;2023-10-09T15:19:12;7.50;;;4.63;;
25237;SDS011;13185;50.872;5.306;2023-10-09T15:21:38;10.55;;;4.82;;
25237;SDS011;13185;50.872;5.306;2023-10-09T15:24:10;13.15;;;5.57;;
25237;SDS011;13185;50.872;5.306;2023-10-09T15:26:47;8.68;;;4.90;;
25237;SDS011;13185;50.872;5.306;2023-10-09T15:29:23;8.48;;;4.88;;
25237;SDS011;13185;50.872;5.306;2023-10-09T15:32:04;10.80;;;5.72;;
25237;SDS011;13185;50.872;5.306;2023-10-09T15:34:32;10.65;;;4.88;;
25237;SDS011;13185;50.872;5.306;2023-10-09T15:37:03;13.50;;;5.47;;
25237;SDS011;13185;50.872;5.306;2023-10-09T15:39:32;9.70;;;4.60;;
25237;SDS011;13185;50.872;5.306;2023-10-09T15:41:59;9.57;;;4.60;;
25237;SDS011;13185;50.872;5.306;2023-10-09T15:44:24;9.85;;;4.30;;
25237;SDS011;13185;50.872;5.306;2023-10-09T15:46:51;14.07;;;4.72;;
25237;SDS011;13185;50.872;5.306;2023-10-09T15:49:25;7.13;;;4.38;;
25237;SDS011;13185;50.872;5.306;2023-10-09T15:51:52;7.63;;;4.25;;
25237;SDS011;13185;50.872;5.306;2023-10-09T15:54:18;12.40;;;4.85;;
25237;SDS011;13185;50.872;5.306;2023-10-09T15:56:45;12.00;;;4.93;;
25237;SDS011;13185;50.872;5.306;2023-10-09T15:59:11;6.70;;;4.45;;
25237;SDS011;13185;50.872;5.306;2023-10-09T16:01:37;10.57;;;5.10;;